sensor_id;sensor_type;location;lat;lon;timestamp;P1;durP1;ratioP1;P2;durP2;ratioP2
24337;SDS011;12457;50.832;4.346;2023-08-21T00:00:36;14.23;;;3.50;;
24337;SDS011;12457;50.832;4.346;2023-08-21T00:03:01;12.50;;;4.63;;
24337;SDS011;12457;50.832;4.346;2023-08-21T00:05:28;16.33;;;5.40;;
24337;SDS011;12457;50.832;4.346;2023-08-21T00:07:55;13.50;;;4.25;;
24337;SDS011;12457;50.832;4.346;2023-08-21T00:10:20;13.68;;;5.45;;
24337;SDS011;12457;50.832;4.346;2023-08-21T00:12:46;17.23;;;5.00;;
24337;SDS011;12457;50.832;4.346;2023-08-21T00:15:12;9.82;;;2.88;;
24337;SDS011;12457;50.832;4.346;2023-08-21T00:17:37;12.52;;;2.75;;
24337;SDS011;12457;50.832;4.346;2023-08-21T00:20:03;8.90;;;2.53;;
24337;SDS011;12457;50.832;4.346;2023-08-21T00:22:29;13.10;;;2.13;;
24337;SDS011;12457;50.832;4.346;2023-08-21T00:24:56;12.18;;;2.33;;
24337;SDS011;12457;50.832;4.346;2023-08-21T00:27:22;9.57;;;2.20;;
24337;SDS011;12457;50.832;4.346;2023-08-21T00:29:47;12.63;;;2.60;;
24337;SDS011;12457;50.832;4.346;2023-08-21T00:32:29;8.55;;;2.70;;
24337;SDS011;12457;50.832;4.346;2023-08-21T00:34:54;11.20;;;2.85;;
24337;SDS011;12457;50.832;4.346;2023-08-21T00:37:20;7.47;;;2.28;;
24337;SDS011;12457;50.832;4.346;2023-08-21T00:39:46;7.93;;;2.03;;
24337;SDS011;12457;50.832;4.346;2023-08-21T00:42:11;7.65;;;2.08;;
24337;SDS011;12457;50.832;4.346;2023-08-21T00:44:37;9.35;;;2.20;;
24337;SDS011;12457;50.832;4.346;2023-08-21T00:47:04;7.97;;;2.00;;
24337;SDS011;12457;50.832;4.346;2023-08-21T00:49:30;13.45;;;2.38;;
24337;SDS011;12457;50.832;4.346;2023-08-21T00:51:56;15.98;;;1.90;;
24337;SDS011;12457;50.832;4.346;2023-08-21T00:54:22;10.45;;;2.20;;
24337;SDS011;12457;50.832;4.346;2023-08-21T00:56:48;9.00;;;1.95;;
24337;SDS011;12457;50.832;4.346;2023-08-21T00:59:15;11.93;;;1.85;;
24337;SDS011;12457;50.832;4.346;2023-08-21T01:01:41;12.20;;;2.00;;
24337;SDS011;12457;50.832;4.346;2023-08-21T01:04:08;6.13;;;2.00;;
24337;SDS011;12457;50.832;4.346;2023-08-21T01:06:34;9.00;;;1.85;;
24337;SDS011;12457;50.832;4.346;2023-08-21T01:09:13;13.23;;;1.90;;
24337;SDS011;12457;50.832;4.346;2023-08-21T01:12:09;15.32;;;2.58;;
24337;SDS011;12457;50.832;4.346;2023-08-21T01:14:54;8.88;;;1.80;;
24337;SDS011;12457;50.832;4.346;2023-08-21T01:17:31;10.18;;;1.83;;
24337;SDS011;12457;50.832;4.346;2023-08-21T01:20:00;12.77;;;2.45;;
24337;SDS011;12457;50.832;4.346;2023-08-21T01:22:27;10.35;;;2.63;;
24337;SDS011;12457;50.832;4.346;2023-08-21T01:24:56;11.82;;;2.20;;
24337;SDS011;12457;50.832;4.346;2023-08-21T01:27:22;10.75;;;2.05;;
24337;SDS011;12457;50.832;4.346;2023-08-21T01:29:48;14.18;;;2.13;;
24337;SDS011;12457;50.832;4.346;2023-08-21T01:32:25;7.20;;;1.60;;
24337;SDS011;12457;50.832;4.346;2023-08-21T01:34:58;10.00;;;1.88;;
24337;SDS011;12457;50.832;4.346;2023-08-21T01:37:25;9.23;;;2.20;;
24337;SDS011;12457;50.832;4.346;2023-08-21T01:39:51;7.80;;;2.10;;
24337;SDS011;12457;50.832;4.346;2023-08-21T01:42:17;12.93;;;2.47;;
24337;SDS011;12457;50.832;4.346;2023-08-21T01:44:43;13.75;;;2.22;;
24337;SDS011;12457;50.832;4.346;2023-08-21T01:47:12;9.32;;;2.45;;
24337;SDS011;12457;50.832;4.346;2023-08-21T01:49:37;10.13;;;2.28;;
24337;SDS011;12457;50.832;4.346;2023-08-21T01:52:03;11.57;;;2.63;;
24337;SDS011;12457;50.832;4.346;2023-08-21T01:54:29;9.07;;;1.90;;
24337;SDS011;12457;50.832;4.346;2023-08-21T01:56:55;9.70;;;2.10;;
24337;SDS011;12457;50.832;4.346;2023-08-21T01:59:22;9.80;;;2.10;;
24337;SDS011;12457;50.832;4.346;2023-08-21T02:01:49;10.35;;;2.90;;
24337;SDS011;12457;50.832;4.346;2023-08-21T02:04:15;6.60;;;2.30;;
24337;SDS011;12457;50.832;4.346;2023-08-21T02:06:42;10.32;;;2.30;;
24337;SDS011;12457;50.832;4.346;2023-08-21T02:09:09;11.77;;;2.08;;
24337;SDS011;12457;50.832;4.346;2023-08-21T02:11:35;8.82;;;2.08;;
24337;SDS011;12457;50.832;4.346;2023-08-21T02:14:01;13.77;;;2.35;;
24337;SDS011;12457;50.832;4.346;2023-08-21T02:16:27;11.90;;;2.25;;
24337;SDS011;12457;50.832;4.346;2023-08-21T02:18:53;9.95;;;2.38;;
24337;SDS011;12457;50.832;4.346;2023-08-21T02:21:20;13.43;;;2.55;;
24337;SDS011;12457;50.832;4.346;2023-08-21T02:23:46;9.35;;;2.38;;
24337;SDS011;12457;50.832;4.346;2023-08-21T02:26:11;13.40;;;2.90;;
24337;SDS011;12457;50.832;4.346;2023-08-21T02:28:37;12.35;;;2.70;;
24337;SDS011;12457;50.832;4.346;2023-08-21T02:31:03;14.50;;;2.53;;
24337;SDS011;12457;50.832;4.346;2023-08-21T02:33:30;7.72;;;2.00;;
24337;SDS011;12457;50.832;4.346;2023-08-21T02:35:56;8.05;;;2.45;;
24337;SDS011;12457;50.832;4.346;2023-08-21T02:38:21;12.65;;;2.28;;
24337;SDS011;12457;50.832;4.346;2023-08-21T02:40:47;6.82;;;2.28;;
24337;SDS011;12457;50.832;4.346;2023-08-21T02:43:14;11.80;;;2.50;;
24337;SDS011;12457;50.832;4.346;2023-08-21T02:45:42;10.40;;;2.30;;
24337;SDS011;12457;50.832;4.346;2023-08-21T02:48:08;11.13;;;3.17;;
24337;SDS011;12457;50.832;4.346;2023-08-21T02:50:33;8.50;;;3.17;;
24337;SDS011;12457;50.832;4.346;2023-08-21T02:52:59;13.90;;;2.45;;
24337;SDS011;12457;50.832;4.346;2023-08-21T02:55:25;15.35;;;2.88;;
24337;SDS011;12457;50.832;4.346;2023-08-21T02:57:51;9.60;;;2.47;;
24337;SDS011;12457;50.832;4.346;2023-08-21T03:00:16;9.75;;;2.22;;
24337;SDS011;12457;50.832;4.346;2023-08-21T03:02:42;10.05;;;2.40;;
24337;SDS011;12457;50.832;4.346;2023-08-21T03:05:09;9.75;;;2.30;;
24337;SDS011;12457;50.832;4.346;2023-08-21T03:07:35;10.02;;;2.50;;
24337;SDS011;12457;50.832;4.346;2023-08-21T03:10:01;12.15;;;2.40;;
24337;SDS011;12457;50.832;4.346;2023-08-21T03:12:29;12.00;;;2.72;;
24337;SDS011;12457;50.832;4.346;2023-08-21T03:14:55;9.65;;;2.70;;
24337;SDS011;12457;50.832;4.346;2023-08-21T03:17:21;6.30;;;2.40;;
24337;SDS011;12457;50.832;4.346;2023-08-21T03:19:50;15.13;;;2.92;;
24337;SDS011;12457;50.832;4.346;2023-08-21T03:22:15;13.25;;;2.55;;
24337;SDS011;12457;50.832;4.346;2023-08-21T03:24:42;10.55;;;2.78;;
24337;SDS011;12457;50.832;4.346;2023-08-21T03:27:07;13.13;;;2.28;;
24337;SDS011;12457;50.832;4.346;2023-08-21T03:29:33;12.07;;;2.17;;
24337;SDS011;12457;50.832;4.346;2023-08-21T03:31:59;9.70;;;2.28;;
24337;SDS011;12457;50.832;4.346;2023-08-21T03:37:09;10.48;;;2.03;;
24337;SDS011;12457;50.832;4.346;2023-08-21T03:39:36;12.82;;;2.38;;
24337;SDS011;12457;50.832;4.346;2023-08-21T03:42:02;10.70;;;2.15;;
24337;SDS011;12457;50.832;4.346;2023-08-21T03:44:28;11.75;;;2.35;;
24337;SDS011;12457;50.832;4.346;2023-08-21T03:46:54;9.82;;;2.08;;
24337;SDS011;12457;50.832;4.346;2023-08-21T03:52:13;9.05;;;2.38;;
24337;SDS011;12457;50.832;4.346;2023-08-21T03:54:39;10.55;;;2.50;;
24337;SDS011;12457;50.832;4.346;2023-08-21T03:57:06;11.15;;;2.95;;
24337;SDS011;12457;50.832;4.346;2023-08-21T03:59:32;10.60;;;2.88;;
24337;SDS011;12457;50.832;4.346;2023-08-21T04:01:58;10.57;;;3.10;;
24337;SDS011;12457;50.832;4.346;2023-08-21T04:04:23;8.57;;;2.33;;
24337;SDS011;12457;50.832;4.346;2023-08-21T04:06:49;13.55;;;2.65;;
24337;SDS011;12457;50.832;4.346;2023-08-21T04:09:15;12.73;;;2.40;;
24337;SDS011;12457;50.832;4.346;2023-08-21T04:11:40;15.02;;;2.72;;
24337;SDS011;12457;50.832;4.346;2023-08-21T04:14:06;14.13;;;2.55;;
24337;SDS011;12457;50.832;4.346;2023-08-21T04:16:32;11.38;;;2.72;;
24337;SDS011;12457;50.832;4.346;2023-08-21T04:18:57;10.80;;;2.45;;
24337;SDS011;12457;50.832;4.346;2023-08-21T04:21:23;11.98;;;2.67;;
24337;SDS011;12457;50.832;4.346;2023-08-21T04:23:49;10.75;;;2.35;;
24337;SDS011;12457;50.832;4.346;2023-08-21T04:26:15;12.52;;;2.60;;
24337;SDS011;12457;50.832;4.346;2023-08-21T04:28:41;9.43;;;2.50;;
24337;SDS011;12457;50.832;4.346;2023-08-21T04:31:07;13.05;;;3.03;;
24337;SDS011;12457;50.832;4.346;2023-08-21T04:33:38;12.70;;;2.67;;
24337;SDS011;12457;50.832;4.346;2023-08-21T04:36:04;7.28;;;2.63;;
24337;SDS011;12457;50.832;4.346;2023-08-21T04:38:30;12.73;;;2.78;;
24337;SDS011;12457;50.832;4.346;2023-08-21T04:40:55;11.73;;;3.13;;
24337;SDS011;12457;50.832;4.346;2023-08-21T04:43:21;18.73;;;3.55;;
24337;SDS011;12457;50.832;4.346;2023-08-21T04:45:52;13.48;;;2.85;;
24337;SDS011;12457;50.832;4.346;2023-08-21T04:48:18;15.80;;;2.60;;
24337;SDS011;12457;50.832;4.346;2023-08-21T04:50:44;16.08;;;2.67;;
24337;SDS011;12457;50.832;4.346;2023-08-21T04:53:10;8.80;;;2.55;;
24337;SDS011;12457;50.832;4.346;2023-08-21T04:55:37;13.15;;;3.17;;
24337;SDS011;12457;50.832;4.346;2023-08-21T04:58:05;9.45;;;2.60;;
24337;SDS011;12457;50.832;4.346;2023-08-21T05:00:31;16.10;;;2.53;;
24337;SDS011;12457;50.832;4.346;2023-08-21T05:02:57;14.20;;;2.75;;
24337;SDS011;12457;50.832;4.346;2023-08-21T05:05:23;14.50;;;2.92;;
24337;SDS011;12457;50.832;4.346;2023-08-21T05:07:48;14.60;;;2.70;;
24337;SDS011;12457;50.832;4.346;2023-08-21T05:10:14;10.18;;;2.50;;
24337;SDS011;12457;50.832;4.346;2023-08-21T05:12:40;9.63;;;2.58;;
24337;SDS011;12457;50.832;4.346;2023-08-21T05:15:06;6.32;;;2.30;;
24337;SDS011;12457;50.832;4.346;2023-08-21T05:17:32;13.60;;;2.75;;
24337;SDS011;12457;50.832;4.346;2023-08-21T05:20:08;12.38;;;1.98;;
24337;SDS011;12457;50.832;4.346;2023-08-21T05:22:35;8.30;;;2.33;;
24337;SDS011;12457;50.832;4.346;2023-08-21T05:25:00;11.15;;;2.10;;
24337;SDS011;12457;50.832;4.346;2023-08-21T05:27:26;9.60;;;2.00;;
24337;SDS011;12457;50.832;4.346;2023-08-21T05:29:52;12.40;;;2.70;;
24337;SDS011;12457;50.832;4.346;2023-08-21T05:32:18;7.43;;;2.20;;
24337;SDS011;12457;50.832;4.346;2023-08-21T05:34:44;10.57;;;2.28;;
24337;SDS011;12457;50.832;4.346;2023-08-21T05:37:11;10.93;;;2.20;;
24337;SDS011;12457;50.832;4.346;2023-08-21T05:39:37;11.90;;;2.35;;
24337;SDS011;12457;50.832;4.346;2023-08-21T05:42:02;21.73;;;2.92;;
24337;SDS011;12457;50.832;4.346;2023-08-21T05:44:28;9.70;;;2.45;;
24337;SDS011;12457;50.832;4.346;2023-08-21T05:46:54;14.93;;;3.10;;
24337;SDS011;12457;50.832;4.346;2023-08-21T05:49:20;12.95;;;2.45;;
24337;SDS011;12457;50.832;4.346;2023-08-21T05:51:48;13.07;;;2.45;;
24337;SDS011;12457;50.832;4.346;2023-08-21T05:54:14;9.48;;;2.20;;
24337;SDS011;12457;50.832;4.346;2023-08-21T05:56:40;17.25;;;2.50;;
24337;SDS011;12457;50.832;4.346;2023-08-21T05:59:05;7.97;;;2.80;;
24337;SDS011;12457;50.832;4.346;2023-08-21T06:01:31;9.77;;;2.50;;
24337;SDS011;12457;50.832;4.346;2023-08-21T06:03:57;10.80;;;2.50;;
24337;SDS011;12457;50.832;4.346;2023-08-21T06:06:23;14.95;;;2.58;;
24337;SDS011;12457;50.832;4.346;2023-08-21T06:08:48;9.68;;;2.78;;
24337;SDS011;12457;50.832;4.346;2023-08-21T06:11:14;10.57;;;2.63;;
24337;SDS011;12457;50.832;4.346;2023-08-21T06:13:40;10.38;;;3.13;;
24337;SDS011;12457;50.832;4.346;2023-08-21T06:16:06;10.05;;;2.60;;
24337;SDS011;12457;50.832;4.346;2023-08-21T06:18:31;9.23;;;2.47;;
24337;SDS011;12457;50.832;4.346;2023-08-21T06:23:45;11.38;;;2.30;;
24337;SDS011;12457;50.832;4.346;2023-08-21T06:26:10;10.00;;;2.30;;
24337;SDS011;12457;50.832;4.346;2023-08-21T06:28:36;13.50;;;3.00;;
24337;SDS011;12457;50.832;4.346;2023-08-21T06:31:02;13.75;;;3.25;;
24337;SDS011;12457;50.832;4.346;2023-08-21T06:33:32;16.65;;;3.25;;
24337;SDS011;12457;50.832;4.346;2023-08-21T06:36:04;11.70;;;3.53;;
24337;SDS011;12457;50.832;4.346;2023-08-21T06:38:30;15.73;;;3.83;;
24337;SDS011;12457;50.832;4.346;2023-08-21T06:40:56;9.90;;;2.85;;
24337;SDS011;12457;50.832;4.346;2023-08-21T06:43:21;13.57;;;2.85;;
24337;SDS011;12457;50.832;4.346;2023-08-21T06:45:47;14.38;;;3.47;;
24337;SDS011;12457;50.832;4.346;2023-08-21T06:48:13;14.82;;;3.78;;
24337;SDS011;12457;50.832;4.346;2023-08-21T06:50:44;15.48;;;4.65;;
24337;SDS011;12457;50.832;4.346;2023-08-21T06:53:10;16.08;;;4.50;;
24337;SDS011;12457;50.832;4.346;2023-08-21T06:55:36;13.05;;;3.35;;
24337;SDS011;12457;50.832;4.346;2023-08-21T06:58:02;16.75;;;4.22;;
24337;SDS011;12457;50.832;4.346;2023-08-21T07:00:28;15.73;;;4.47;;
24337;SDS011;12457;50.832;4.346;2023-08-21T07:02:55;14.98;;;3.95;;
24337;SDS011;12457;50.832;4.346;2023-08-21T07:05:21;15.73;;;3.72;;
24337;SDS011;12457;50.832;4.346;2023-08-21T07:07:46;13.77;;;3.20;;
24337;SDS011;12457;50.832;4.346;2023-08-21T07:10:12;13.90;;;3.63;;
24337;SDS011;12457;50.832;4.346;2023-08-21T07:12:41;11.93;;;3.70;;
24337;SDS011;12457;50.832;4.346;2023-08-21T07:15:08;12.40;;;3.55;;
24337;SDS011;12457;50.832;4.346;2023-08-21T07:17:36;16.65;;;3.78;;
24337;SDS011;12457;50.832;4.346;2023-08-21T07:20:11;13.57;;;4.10;;
24337;SDS011;12457;50.832;4.346;2023-08-21T07:22:39;19.73;;;3.95;;
24337;SDS011;12457;50.832;4.346;2023-08-21T07:25:05;17.13;;;4.18;;
24337;SDS011;12457;50.832;4.346;2023-08-21T07:27:31;11.85;;;3.45;;
24337;SDS011;12457;50.832;4.346;2023-08-21T07:29:57;17.65;;;4.22;;
24337;SDS011;12457;50.832;4.346;2023-08-21T07:32:23;20.92;;;4.05;;
24337;SDS011;12457;50.832;4.346;2023-08-21T07:34:52;16.13;;;3.85;;
24337;SDS011;12457;50.832;4.346;2023-08-21T07:37:38;15.27;;;3.10;;
24337;SDS011;12457;50.832;4.346;2023-08-21T07:40:06;12.20;;;3.08;;
24337;SDS011;12457;50.832;4.346;2023-08-21T07:42:32;11.27;;;3.33;;
24337;SDS011;12457;50.832;4.346;2023-08-21T07:44:58;12.63;;;3.40;;
24337;SDS011;12457;50.832;4.346;2023-08-21T07:47:24;17.98;;;3.63;;
24337;SDS011;12457;50.832;4.346;2023-08-21T07:49:52;10.98;;;3.28;;
24337;SDS011;12457;50.832;4.346;2023-08-21T07:52:26;13.07;;;3.15;;
24337;SDS011;12457;50.832;4.346;2023-08-21T07:54:54;9.93;;;3.13;;
24337;SDS011;12457;50.832;4.346;2023-08-21T07:57:20;9.55;;;3.10;;
24337;SDS011;12457;50.832;4.346;2023-08-21T07:59:45;15.43;;;3.42;;
24337;SDS011;12457;50.832;4.346;2023-08-21T08:02:11;12.57;;;2.95;;
24337;SDS011;12457;50.832;4.346;2023-08-21T08:04:38;12.80;;;3.70;;
24337;SDS011;12457;50.832;4.346;2023-08-21T08:07:05;15.90;;;3.30;;
24337;SDS011;12457;50.832;4.346;2023-08-21T08:09:31;11.07;;;3.00;;
24337;SDS011;12457;50.832;4.346;2023-08-21T08:11:58;17.30;;;3.28;;
24337;SDS011;12457;50.832;4.346;2023-08-21T08:14:23;20.10;;;3.13;;
24337;SDS011;12457;50.832;4.346;2023-08-21T08:16:49;17.38;;;3.70;;
24337;SDS011;12457;50.832;4.346;2023-08-21T08:19:15;15.13;;;3.70;;
24337;SDS011;12457;50.832;4.346;2023-08-21T08:21:50;14.90;;;3.13;;
24337;SDS011;12457;50.832;4.346;2023-08-21T08:24:15;12.48;;;3.65;;
24337;SDS011;12457;50.832;4.346;2023-08-21T08:26:41;11.07;;;3.80;;
24337;SDS011;12457;50.832;4.346;2023-08-21T08:29:08;18.00;;;3.58;;
24337;SDS011;12457;50.832;4.346;2023-08-21T08:31:34;15.43;;;3.28;;
24337;SDS011;12457;50.832;4.346;2023-08-21T08:34:03;11.27;;;3.38;;
24337;SDS011;12457;50.832;4.346;2023-08-21T08:36:29;14.75;;;3.80;;
24337;SDS011;12457;50.832;4.346;2023-08-21T08:38:56;15.98;;;3.70;;
24337;SDS011;12457;50.832;4.346;2023-08-21T08:41:33;18.02;;;3.50;;
24337;SDS011;12457;50.832;4.346;2023-08-21T08:44:02;18.50;;;4.10;;
24337;SDS011;12457;50.832;4.346;2023-08-21T08:46:29;9.57;;;3.63;;
24337;SDS011;12457;50.832;4.346;2023-08-21T08:48:56;14.65;;;3.90;;
24337;SDS011;12457;50.832;4.346;2023-08-21T08:51:25;13.18;;;4.28;;
24337;SDS011;12457;50.832;4.346;2023-08-21T08:53:53;18.63;;;3.45;;
24337;SDS011;12457;50.832;4.346;2023-08-21T08:56:20;10.55;;;3.03;;
24337;SDS011;12457;50.832;4.346;2023-08-21T08:58:46;11.15;;;3.35;;
24337;SDS011;12457;50.832;4.346;2023-08-21T09:01:11;8.80;;;2.50;;
24337;SDS011;12457;50.832;4.346;2023-08-21T09:03:38;16.42;;;3.70;;
24337;SDS011;12457;50.832;4.346;2023-08-21T09:06:04;12.65;;;2.90;;
24337;SDS011;12457;50.832;4.346;2023-08-21T09:08:30;11.63;;;3.05;;
24337;SDS011;12457;50.832;4.346;2023-08-21T09:10:55;10.88;;;3.30;;
24337;SDS011;12457;50.832;4.346;2023-08-21T09:13:27;11.77;;;3.15;;
24337;SDS011;12457;50.832;4.346;2023-08-21T09:15:53;12.30;;;3.30;;
24337;SDS011;12457;50.832;4.346;2023-08-21T09:18:23;19.17;;;3.83;;
24337;SDS011;12457;50.832;4.346;2023-08-21T09:20:49;13.35;;;3.38;;
24337;SDS011;12457;50.832;4.346;2023-08-21T09:23:16;19.80;;;4.00;;
24337;SDS011;12457;50.832;4.346;2023-08-21T09:25:46;14.15;;;3.00;;
24337;SDS011;12457;50.832;4.346;2023-08-21T09:28:13;10.45;;;2.45;;
24337;SDS011;12457;50.832;4.346;2023-08-21T09:30:47;15.65;;;2.60;;
24337;SDS011;12457;50.832;4.346;2023-08-21T09:33:20;7.18;;;2.75;;
24337;SDS011;12457;50.832;4.346;2023-08-21T09:35:53;7.22;;;1.80;;
24337;SDS011;12457;50.832;4.346;2023-08-21T09:38:20;5.68;;;1.80;;
24337;SDS011;12457;50.832;4.346;2023-08-21T09:40:54;7.10;;;2.20;;
24337;SDS011;12457;50.832;4.346;2023-08-21T09:43:21;7.72;;;2.25;;
24337;SDS011;12457;50.832;4.346;2023-08-21T09:45:47;6.43;;;1.80;;
24337;SDS011;12457;50.832;4.346;2023-08-21T09:48:23;10.65;;;2.05;;
24337;SDS011;12457;50.832;4.346;2023-08-21T09:50:53;10.02;;;2.00;;
24337;SDS011;12457;50.832;4.346;2023-08-21T09:53:26;2.85;;;1.00;;
24337;SDS011;12457;50.832;4.346;2023-08-21T09:55:53;5.55;;;1.60;;
24337;SDS011;12457;50.832;4.346;2023-08-21T09:58:20;5.18;;;2.03;;
24337;SDS011;12457;50.832;4.346;2023-08-21T10:00:48;6.47;;;2.10;;
24337;SDS011;12457;50.832;4.346;2023-08-21T10:03:18;9.15;;;1.88;;
24337;SDS011;12457;50.832;4.346;2023-08-21T10:05:45;6.88;;;1.67;;
24337;SDS011;12457;50.832;4.346;2023-08-21T10:08:13;4.90;;;1.50;;
24337;SDS011;12457;50.832;4.346;2023-08-21T10:10:49;5.53;;;1.30;;
24337;SDS011;12457;50.832;4.346;2023-08-21T10:13:15;4.13;;;1.10;;
24337;SDS011;12457;50.832;4.346;2023-08-21T10:15:41;5.40;;;1.35;;
24337;SDS011;12457;50.832;4.346;2023-08-21T10:20:48;6.43;;;1.90;;
24337;SDS011;12457;50.832;4.346;2023-08-21T10:23:28;7.03;;;3.58;;
24337;SDS011;12457;50.832;4.346;2023-08-21T10:25:58;7.97;;;2.03;;
24337;SDS011;12457;50.832;4.346;2023-08-21T10:28:40;8.48;;;1.83;;
24337;SDS011;12457;50.832;4.346;2023-08-21T10:31:39;10.90;;;1.90;;
24337;SDS011;12457;50.832;4.346;2023-08-21T10:34:08;7.60;;;1.70;;
24337;SDS011;12457;50.832;4.346;2023-08-21T10:47:20;1.58;;;0.82;;
24337;SDS011;12457;50.832;4.346;2023-08-21T10:49:55;3.58;;;0.90;;
24337;SDS011;12457;50.832;4.346;2023-08-21T10:52:26;5.18;;;1.30;;
24337;SDS011;12457;50.832;4.346;2023-08-21T10:54:57;2.60;;;1.00;;
24337;SDS011;12457;50.832;4.346;2023-08-21T10:57:25;3.42;;;1.00;;
24337;SDS011;12457;50.832;4.346;2023-08-21T10:59:54;5.90;;;1.20;;
24337;SDS011;12457;50.832;4.346;2023-08-21T11:02:23;2.70;;;1.10;;
24337;SDS011;12457;50.832;4.346;2023-08-21T11:04:54;6.63;;;1.38;;
24337;SDS011;12457;50.832;4.346;2023-08-21T11:07:27;4.78;;;0.90;;
24337;SDS011;12457;50.832;4.346;2023-08-21T11:09:54;6.93;;;1.10;;
24337;SDS011;12457;50.832;4.346;2023-08-21T11:12:21;4.65;;;1.33;;
24337;SDS011;12457;50.832;4.346;2023-08-21T11:14:49;7.15;;;1.52;;
24337;SDS011;12457;50.832;4.346;2023-08-21T11:17:15;5.05;;;1.35;;
24337;SDS011;12457;50.832;4.346;2023-08-21T11:19:45;7.50;;;1.35;;
24337;SDS011;12457;50.832;4.346;2023-08-21T11:22:14;6.55;;;1.60;;
24337;SDS011;12457;50.832;4.346;2023-08-21T11:24:40;5.05;;;1.30;;
24337;SDS011;12457;50.832;4.346;2023-08-21T11:27:12;4.65;;;1.38;;
24337;SDS011;12457;50.832;4.346;2023-08-21T11:29:43;6.88;;;1.65;;
24337;SDS011;12457;50.832;4.346;2023-08-21T11:32:13;6.60;;;2.30;;
24337;SDS011;12457;50.832;4.346;2023-08-21T11:34:47;14.48;;;1.67;;
24337;SDS011;12457;50.832;4.346;2023-08-21T11:37:13;6.85;;;2.03;;
24337;SDS011;12457;50.832;4.346;2023-08-21T11:39:48;5.35;;;1.80;;
24337;SDS011;12457;50.832;4.346;2023-08-21T11:42:17;4.65;;;1.20;;
24337;SDS011;12457;50.832;4.346;2023-08-21T11:44:51;4.10;;;1.23;;
24337;SDS011;12457;50.832;4.346;2023-08-21T11:47:18;6.18;;;1.30;;
24337;SDS011;12457;50.832;4.346;2023-08-21T11:49:47;7.03;;;1.65;;
24337;SDS011;12457;50.832;4.346;2023-08-21T11:52:17;5.50;;;1.55;;
24337;SDS011;12457;50.832;4.346;2023-08-21T11:54:47;4.45;;;1.60;;
24337;SDS011;12457;50.832;4.346;2023-08-21T11:57:16;7.90;;;1.52;;
24337;SDS011;12457;50.832;4.346;2023-08-21T11:59:42;2.85;;;1.08;;
24337;SDS011;12457;50.832;4.346;2023-08-21T12:02:18;8.05;;;1.63;;
24337;SDS011;12457;50.832;4.346;2023-08-21T12:05:00;5.88;;;1.50;;
24337;SDS011;12457;50.832;4.346;2023-08-21T12:07:32;6.63;;;1.65;;
24337;SDS011;12457;50.832;4.346;2023-08-21T12:10:00;6.38;;;1.50;;
24337;SDS011;12457;50.832;4.346;2023-08-21T12:12:26;5.82;;;2.20;;
24337;SDS011;12457;50.832;4.346;2023-08-21T12:14:53;6.18;;;1.60;;
24337;SDS011;12457;50.832;4.346;2023-08-21T12:17:18;6.35;;;1.67;;
24337;SDS011;12457;50.832;4.346;2023-08-21T12:19:45;9.60;;;1.75;;
24337;SDS011;12457;50.832;4.346;2023-08-21T12:22:12;11.15;;;2.50;;
24337;SDS011;12457;50.832;4.346;2023-08-21T12:24:38;13.73;;;2.47;;
24337;SDS011;12457;50.832;4.346;2023-08-21T12:27:06;8.90;;;1.90;;
24337;SDS011;12457;50.832;4.346;2023-08-21T12:29:33;5.75;;;2.05;;
24337;SDS011;12457;50.832;4.346;2023-08-21T12:31:59;6.95;;;1.80;;
24337;SDS011;12457;50.832;4.346;2023-08-21T12:34:28;6.20;;;1.70;;
24337;SDS011;12457;50.832;4.346;2023-08-21T12:36:54;6.40;;;1.67;;
24337;SDS011;12457;50.832;4.346;2023-08-21T12:42:23;5.57;;;1.80;;
24337;SDS011;12457;50.832;4.346;2023-08-21T12:44:51;2.95;;;1.50;;
24337;SDS011;12457;50.832;4.346;2023-08-21T12:47:16;4.75;;;1.55;;
24337;SDS011;12457;50.832;4.346;2023-08-21T12:49:43;4.95;;;2.15;;
24337;SDS011;12457;50.832;4.346;2023-08-21T12:52:08;5.13;;;1.92;;
24337;SDS011;12457;50.832;4.346;2023-08-21T12:54:53;5.45;;;1.67;;
24337;SDS011;12457;50.832;4.346;2023-08-21T12:57:19;6.00;;;1.70;;
24337;SDS011;12457;50.832;4.346;2023-08-21T12:59:44;4.57;;;1.60;;
24337;SDS011;12457;50.832;4.346;2023-08-21T13:02:10;6.20;;;1.90;;
24337;SDS011;12457;50.832;4.346;2023-08-21T13:04:36;8.00;;;2.20;;
24337;SDS011;12457;50.832;4.346;2023-08-21T13:07:01;7.88;;;2.20;;
24337;SDS011;12457;50.832;4.346;2023-08-21T13:09:29;6.72;;;1.80;;
24337;SDS011;12457;50.832;4.346;2023-08-21T13:11:55;6.18;;;1.63;;
24337;SDS011;12457;50.832;4.346;2023-08-21T13:14:21;7.80;;;1.83;;
24337;SDS011;12457;50.832;4.346;2023-08-21T13:16:47;5.15;;;1.60;;
24337;SDS011;12457;50.832;4.346;2023-08-21T13:19:14;4.88;;;1.60;;
24337;SDS011;12457;50.832;4.346;2023-08-21T13:21:40;2.70;;;1.42;;
24337;SDS011;12457;50.832;4.346;2023-08-21T13:24:06;5.30;;;1.38;;
24337;SDS011;12457;50.832;4.346;2023-08-21T13:26:32;12.05;;;2.13;;
24337;SDS011;12457;50.832;4.346;2023-08-21T13:28:57;6.88;;;1.45;;
24337;SDS011;12457;50.832;4.346;2023-08-21T13:31:24;4.05;;;1.58;;
24337;SDS011;12457;50.832;4.346;2023-08-21T13:33:50;6.30;;;1.55;;
24337;SDS011;12457;50.832;4.346;2023-08-21T13:36:16;5.18;;;1.65;;
24337;SDS011;12457;50.832;4.346;2023-08-21T13:38:43;2.42;;;1.20;;
24337;SDS011;12457;50.832;4.346;2023-08-21T13:41:09;5.22;;;1.48;;
24337;SDS011;12457;50.832;4.346;2023-08-21T13:43:36;4.93;;;1.27;;
24337;SDS011;12457;50.832;4.346;2023-08-21T13:46:02;5.85;;;1.40;;
24337;SDS011;12457;50.832;4.346;2023-08-21T13:48:29;3.72;;;1.50;;
24337;SDS011;12457;50.832;4.346;2023-08-21T13:50:55;6.32;;;1.25;;
24337;SDS011;12457;50.832;4.346;2023-08-21T13:53:21;3.75;;;0.95;;
24337;SDS011;12457;50.832;4.346;2023-08-21T13:55:50;3.95;;;1.10;;
24337;SDS011;12457;50.832;4.346;2023-08-21T13:58:17;3.97;;;1.23;;
24337;SDS011;12457;50.832;4.346;2023-08-21T14:00:43;1.88;;;1.08;;
24337;SDS011;12457;50.832;4.346;2023-08-21T14:03:10;5.45;;;1.05;;
24337;SDS011;12457;50.832;4.346;2023-08-21T14:05:36;4.90;;;1.23;;
24337;SDS011;12457;50.832;4.346;2023-08-21T14:08:01;3.40;;;1.00;;
24337;SDS011;12457;50.832;4.346;2023-08-21T14:13:41;6.57;;;1.30;;
24337;SDS011;12457;50.832;4.346;2023-08-21T14:16:06;2.75;;;1.00;;
24337;SDS011;12457;50.832;4.346;2023-08-21T14:18:33;5.82;;;1.08;;
24337;SDS011;12457;50.832;4.346;2023-08-21T14:20:59;5.38;;;0.98;;
24337;SDS011;12457;50.832;4.346;2023-08-21T14:23:35;1.40;;;0.80;;
24337;SDS011;12457;50.832;4.346;2023-08-21T14:26:01;3.88;;;0.98;;
24337;SDS011;12457;50.832;4.346;2023-08-21T14:28:27;3.75;;;1.52;;
24337;SDS011;12457;50.832;4.346;2023-08-21T14:30:53;6.97;;;1.80;;
24337;SDS011;12457;50.832;4.346;2023-08-21T14:33:22;2.90;;;1.23;;
24337;SDS011;12457;50.832;4.346;2023-08-21T14:35:47;3.35;;;1.15;;
24337;SDS011;12457;50.832;4.346;2023-08-21T14:38:14;3.88;;;0.90;;
24337;SDS011;12457;50.832;4.346;2023-08-21T14:40:41;3.83;;;1.25;;
24337;SDS011;12457;50.832;4.346;2023-08-21T14:43:06;4.65;;;1.20;;
24337;SDS011;12457;50.832;4.346;2023-08-21T14:45:33;2.33;;;0.98;;
24337;SDS011;12457;50.832;4.346;2023-08-21T14:47:59;1.15;;;0.45;;
24337;SDS011;12457;50.832;4.346;2023-08-21T14:50:25;3.70;;;0.70;;
24337;SDS011;12457;50.832;4.346;2023-08-21T14:52:51;4.13;;;0.73;;
24337;SDS011;12457;50.832;4.346;2023-08-21T14:55:22;4.30;;;0.80;;
24337;SDS011;12457;50.832;4.346;2023-08-21T14:57:56;5.63;;;0.85;;
24337;SDS011;12457;50.832;4.346;2023-08-21T15:00:22;1.90;;;0.70;;
24337;SDS011;12457;50.832;4.346;2023-08-21T15:02:49;3.88;;;1.17;;
24337;SDS011;12457;50.832;4.346;2023-08-21T15:05:15;2.92;;;1.15;;
24337;SDS011;12457;50.832;4.346;2023-08-21T15:07:46;2.20;;;1.25;;
24337;SDS011;12457;50.832;4.346;2023-08-21T15:13:01;6.65;;;1.33;;